sensor_id;sensor_type;location;lat;lon;timestamp;pressure;altitude;pressure_sealevel;temperature;humidity
11678;BME280;5895;41.950;24.372;2023-03-24T00:00:26;86850.63;;;1.85;82.10
11678;BME280;5895;41.950;24.372;2023-03-24T00:02:53;86841.56;;;1.82;82.34
11678;BME280;5895;41.950;24.372;2023-03-24T00:05:21;86851.53;;;1.77;82.46
11678;BME280;5895;41.950;24.372;2023-03-24T00:07:50;86851.00;;;1.82;82.61
11678;BME280;5895;41.950;24.372;2023-03-24T00:10:19;86846.88;;;1.81;82.73
11678;BME280;5895;41.950;24.372;2023-03-24T00:12:47;86857.44;;;1.78;83.46
11678;BME280;5895;41.950;24.372;2023-03-24T00:15:16;86850.63;;;1.85;85.05
11678;BME280;5895;41.950;24.372;2023-03-24T00:17:45;86845.19;;;1.88;85.15
11678;BME280;5895;41.950;24.372;2023-03-24T00:20:15;86843.22;;;1.90;84.70
11678;BME280;5895;41.950;24.372;2023-03-24T00:22:45;86840.94;;;1.95;85.14
11678;BME280;5895;41.950;24.372;2023-03-24T00:25:19;86846.69;;;1.97;84.79
11678;BME280;5895;41.950;24.372;2023-03-24T00:27:48;86842.19;;;1.99;85.13
11678;BME280;5895;41.950;24.372;2023-03-24T00:30:17;86840.78;;;1.97;84.89
11678;BME280;5895;41.950;24.372;2023-03-24T00:32:45;86840.59;;;1.98;84.09
11678;BME280;5895;41.950;24.372;2023-03-24T00:35:14;86834.25;;;1.94;83.74
11678;BME280;5895;41.950;24.372;2023-03-24T00:37:42;86837.41;;;1.96;84.06
11678;BME280;5895;41.950;24.372;2023-03-24T00:40:12;86828.25;;;1.87;83.12
11678;BME280;5895;41.950;24.372;2023-03-24T00:42:43;86830.03;;;1.87;83.24
11678;BME280;5895;41.950;24.372;2023-03-24T00:45:14;86835.94;;;1.87;84.13
11678;BME280;5895;41.950;24.372;2023-03-24T00:47:42;86830.19;;;1.85;83.15
11678;BME280;5895;41.950;24.372;2023-03-24T00:50:12;86830.56;;;1.82;83.96
11678;BME280;5895;41.950;24.372;2023-03-24T00:52:42;86819.78;;;1.72;81.93
11678;BME280;5895;41.950;24.372;2023-03-24T00:55:13;86827.97;;;1.67;81.27
11678;BME280;5895;41.950;24.372;2023-03-24T00:57:44;86843.59;;;1.57;81.05
11678;BME280;5895;41.950;24.372;2023-03-24T01:00:16;86835.66;;;1.52;80.96
11678;BME280;5895;41.950;24.372;2023-03-24T01:02:45;86835.03;;;1.50;81.16
11678;BME280;5895;41.950;24.372;2023-03-24T01:05:13;86831.69;;;1.50;81.88
11678;BME280;5895;41.950;24.372;2023-03-24T01:07:42;86825.31;;;1.46;83.08
11678;BME280;5895;41.950;24.372;2023-03-24T01:10:11;86823.03;;;1.51;83.19
11678;BME280;5895;41.950;24.372;2023-03-24T01:12:42;86825.44;;;1.52;84.33
11678;BME280;5895;41.950;24.372;2023-03-24T01:15:13;86817.41;;;1.55;84.54
11678;BME280;5895;41.950;24.372;2023-03-24T01:17:40;86812.94;;;1.57;84.17
11678;BME280;5895;41.950;24.372;2023-03-24T01:20:09;86810.19;;;1.59;84.19
11678;BME280;5895;41.950;24.372;2023-03-24T01:22:39;86818.03;;;1.57;84.25
11678;BME280;5895;41.950;24.372;2023-03-24T01:25:11;86808.41;;;1.59;85.55
11678;BME280;5895;41.950;24.372;2023-03-24T01:27:39;86812.56;;;1.61;85.43
11678;BME280;5895;41.950;24.372;2023-03-24T01:30:11;86818.13;;;1.64;85.46
11678;BME280;5895;41.950;24.372;2023-03-24T01:32:38;86809.03;;;1.62;84.97
11678;BME280;5895;41.950;24.372;2023-03-24T01:35:06;86816.16;;;1.66;85.63
11678;BME280;5895;41.950;24.372;2023-03-24T01:37:34;86812.81;;;1.66;85.73
11678;BME280;5895;41.950;24.372;2023-03-24T01:40:01;86794.13;;;1.65;86.37
11678;BME280;5895;41.950;24.372;2023-03-24T01:42:32;86799.25;;;1.65;85.75
11678;BME280;5895;41.950;24.372;2023-03-24T01:45:01;86803.56;;;1.65;84.31
11678;BME280;5895;41.950;24.372;2023-03-24T01:47:30;86801.88;;;1.57;84.32
11678;BME280;5895;41.950;24.372;2023-03-24T01:49:59;86803.56;;;1.50;84.07
11678;BME280;5895;41.950;24.372;2023-03-24T01:52:32;86803.56;;;1.50;84.06
11678;BME280;5895;41.950;24.372;2023-03-24T01:55:03;86798.97;;;1.45;83.88
11678;BME280;5895;41.950;24.372;2023-03-24T01:57:34;86795.81;;;1.43;84.33
11678;BME280;5895;41.950;24.372;2023-03-24T02:00:07;86795.81;;;1.43;85.06
11678;BME280;5895;41.950;24.372;2023-03-24T02:02:37;86798.19;;;1.45;85.47
11678;BME280;5895;41.950;24.372;2023-03-24T02:05:09;86794.31;;;1.49;85.63
11678;BME280;5895;41.950;24.372;2023-03-24T02:07:40;86792.72;;;1.48;85.20
11678;BME280;5895;41.950;24.372;2023-03-24T02:10:12;86791.94;;;1.47;85.65
11678;BME280;5895;41.950;24.372;2023-03-24T02:12:41;86792.34;;;1.51;85.42
11678;BME280;5895;41.950;24.372;2023-03-24T02:15:10;86794.75;;;1.52;85.39
11678;BME280;5895;41.950;24.372;2023-03-24T02:17:56;86795.97;;;1.56;86.56
11678;BME280;5895;41.950;24.372;2023-03-24T02:24:09;86807.69;;;1.51;86.56
11678;BME280;5895;41.950;24.372;2023-03-24T02:26:49;86789.00;;;1.50;85.52
11678;BME280;5895;41.950;24.372;2023-03-24T02:32:48;86791.56;;;1.50;87.52
11678;BME280;5895;41.950;24.372;2023-03-24T02:35:59;86793.59;;;1.55;87.84
11678;BME280;5895;41.950;24.372;2023-03-24T02:41:42;86802.69;;;1.57;86.43
11678;BME280;5895;41.950;24.372;2023-03-24T02:44:17;86802.84;;;1.56;86.08
11678;BME280;5895;41.950;24.372;2023-03-24T02:46:51;86806.19;;;1.56;85.69
11678;BME280;5895;41.950;24.372;2023-03-24T02:49:28;86810.97;;;1.59;87.00
11678;BME280;5895;41.950;24.372;2023-03-24T02:52:02;86810.97;;;1.59;85.79
11678;BME280;5895;41.950;24.372;2023-03-24T02:54:38;86821.81;;;1.62;85.82
11678;BME280;5895;41.950;24.372;2023-03-24T02:57:12;86810.59;;;1.63;85.34
11678;BME280;5895;41.950;24.372;2023-03-24T02:59:48;86818.91;;;1.65;85.85
11678;BME280;5895;41.950;24.372;2023-03-24T03:02:19;86816.69;;;1.62;85.17
11678;BME280;5895;41.950;24.372;2023-03-24T03:04:53;86820.03;;;1.62;85.61
11678;BME280;5895;41.950;24.372;2023-03-24T03:07:24;86812.56;;;1.61;85.42
11678;BME280;5895;41.950;24.372;2023-03-24T03:09:55;86811.25;;;1.65;84.90
11678;BME280;5895;41.950;24.372;2023-03-24T03:12:26;86814.59;;;1.65;85.04
11678;BME280;5895;41.950;24.372;2023-03-24T03:14:59;86822.06;;;1.67;84.67
11678;BME280;5895;41.950;24.372;2023-03-24T03:17:32;86816.97;;;1.67;85.32
11678;BME280;5895;41.950;24.372;2023-03-24T03:20:03;86822.06;;;1.67;85.55
11678;BME280;5895;41.950;24.372;2023-03-24T03:22:38;86827.97;;;1.67;85.04
11678;BME280;5895;41.950;24.372;2023-03-24T03:25:08;86826.41;;;1.66;84.95
11678;BME280;5895;41.950;24.372;2023-03-24T03:27:41;86827.97;;;1.67;84.95
11678;BME280;5895;41.950;24.372;2023-03-24T03:30:15;86846.06;;;1.66;85.10
11678;BME280;5895;41.950;24.372;2023-03-24T03:32:47;86850.91;;;1.61;85.21
11678;BME280;5895;41.950;24.372;2023-03-24T03:35:23;86840.06;;;1.58;84.78
11678;BME280;5895;41.950;24.372;2023-03-24T03:37:56;86837.06;;;1.55;84.91
11678;BME280;5895;41.950;24.372;2023-03-24T03:40:31;86830.19;;;1.55;85.21
11678;BME280;5895;41.950;24.372;2023-03-24T03:43:00;86827.63;;;1.55;84.25
11678;BME280;5895;41.950;24.372;2023-03-24T03:45:28;86820.94;;;1.54;84.74
11678;BME280;5895;41.950;24.372;2023-03-24T03:47:55;86812.47;;;1.54;84.44
11678;BME280;5895;41.950;24.372;2023-03-24T03:50:22;86807.53;;;1.52;84.46
11678;BME280;5895;41.950;24.372;2023-03-24T03:52:50;86801.00;;;1.50;84.65
11678;BME280;5895;41.950;24.372;2023-03-24T03:55:18;86794.13;;;1.50;85.27
11678;BME280;5895;41.950;24.372;2023-03-24T03:57:45;86783.91;;;1.50;84.80
11678;BME280;5895;41.950;24.372;2023-03-24T04:00:16;86786.44;;;1.50;86.46
11678;BME280;5895;41.950;24.372;2023-03-24T04:03:00;86785.66;;;1.50;86.60
11678;BME280;5895;41.950;24.372;2023-03-24T04:05:34;86789.97;;;1.49;85.92
11678;BME280;5895;41.950;24.372;2023-03-24T04:08:07;86786.81;;;1.47;85.61
11678;BME280;5895;41.950;24.372;2023-03-24T04:10:57;86795.09;;;1.49;85.79
11678;BME280;5895;41.950;24.372;2023-03-24T04:13:34;86791.16;;;1.47;84.94
11678;BME280;5895;41.950;24.372;2023-03-24T04:16:09;86794.66;;;1.46;85.35
11678;BME280;5895;41.950;24.372;2023-03-24T04:18:56;86795.09;;;1.49;87.41
11678;BME280;5895;41.950;24.372;2023-03-24T04:21:44;86799.41;;;1.49;87.22
11678;BME280;5895;41.950;24.372;2023-03-24T04:24:23;86805.31;;;1.49;86.85
11678;BME280;5895;41.950;24.372;2023-03-24T04:26:55;86806.13;;;1.50;85.66
11678;BME280;5895;41.950;24.372;2023-03-24T04:29:30;86802.16;;;1.47;85.36
11678;BME280;5895;41.950;24.372;2023-03-24T04:32:03;86797.03;;;1.47;85.36
11678;BME280;5895;41.950;24.372;2023-03-24T04:34:38;86802.16;;;1.47;85.34
11678;BME280;5895;41.950;24.372;2023-03-24T04:37:12;86805.94;;;1.51;86.43
11678;BME280;5895;41.950;24.372;2023-03-24T04:39:42;86806.91;;;1.50;85.52
11678;BME280;5895;41.950;24.372;2023-03-24T04:42:14;86805.78;;;1.53;86.48
11678;BME280;5895;41.950;24.372;2023-03-24T04:44:44;86809.72;;;1.55;85.90
11678;BME280;5895;41.950;24.372;2023-03-24T04:47:12;86812.94;;;1.57;85.20
11678;BME280;5895;41.950;24.372;2023-03-24T04:49:40;86805.25;;;1.57;85.46
11678;BME280;5895;41.950;24.372;2023-03-24T04:52:08;86812.09;;;1.57;85.54
11678;BME280;5895;41.950;24.372;2023-03-24T04:54:35;86812.28;;;1.55;85.44
11678;BME280;5895;41.950;24.372;2023-03-24T04:57:03;86812.94;;;1.57;85.61
11678;BME280;5895;41.950;24.372;2023-03-24T04:59:30;86821.72;;;1.55;84.92
11678;BME280;5895;41.950;24.372;2023-03-24T05:01:59;86821.91;;;1.53;85.15
11678;BME280;5895;41.950;24.372;2023-03-24T05:04:28;86813.06;;;1.56;85.57
11678;BME280;5895;41.950;24.372;2023-03-24T05:06:55;86808.59;;;1.58;85.15
11678;BME280;5895;41.950;24.372;2023-03-24T05:09:24;86812.56;;;1.61;85.43
11678;BME280;5895;41.950;24.372;2023-03-24T05:11:51;86815.72;;;1.63;85.24
11678;BME280;5895;41.950;24.372;2023-03-24T05:14:19;86819.53;;;1.67;85.34
11678;BME280;5895;41.950;24.372;2023-03-24T05:16:46;86815.03;;;1.69;86.16
11678;BME280;5895;41.950;24.372;2023-03-24T05:19:13;86813.44;;;1.68;86.33
11678;BME280;5895;41.950;24.372;2023-03-24T05:21:42;86820.25;;;1.75;86.11
11678;BME280;5895;41.950;24.372;2023-03-24T05:24:09;86818.47;;;1.76;86.40
11678;BME280;5895;41.950;24.372;2023-03-24T05:26:37;86821.91;;;1.83;85.51
11678;BME280;5895;41.950;24.372;2023-03-24T05:29:04;86820.59;;;1.87;85.86
11678;BME280;5895;41.950;24.372;2023-03-24T05:31:31;86829.50;;;1.91;85.82
11678;BME280;5895;41.950;24.372;2023-03-24T05:33:58;86824.00;;;1.94;86.36
11678;BME280;5895;41.950;24.372;2023-03-24T05:36:25;86824.47;;;1.98;85.34
11678;BME280;5895;41.950;24.372;2023-03-24T05:38:54;86821.72;;;1.99;86.20
11678;BME280;5895;41.950;24.372;2023-03-24T05:41:21;86823.75;;;2.04;86.14
11678;BME280;5895;41.950;24.372;2023-03-24T05:43:48;86831.03;;;2.07;85.68
11678;BME280;5895;41.950;24.372;2023-03-24T05:46:15;86830.50;;;2.11;86.41
11678;BME280;5895;41.950;24.372;2023-03-24T05:48:42;86831.75;;;2.16;85.13
11678;BME280;5895;41.950;24.372;2023-03-24T05:51:11;86832.63;;;2.23;86.41
11678;BME280;5895;41.950;24.372;2023-03-24T05:53:38;86828.81;;;2.33;85.63
11678;BME280;5895;41.950;24.372;2023-03-24T05:56:08;86832.53;;;2.52;85.47
11678;BME280;5895;41.950;24.372;2023-03-24T05:58:36;86833.94;;;2.70;85.43
11678;BME280;5895;41.950;24.372;2023-03-24T06:01:06;86836.44;;;2.84;86.19
11678;BME280;5895;41.950;24.372;2023-03-24T06:03:34;86835.84;;;3.04;85.74
11678;BME280;5895;41.950;24.372;2023-03-24T06:06:04;86832.81;;;3.22;83.88
11678;BME280;5895;41.950;24.372;2023-03-24T06:08:32;86838.53;;;3.45;84.43
11678;BME280;5895;41.950;24.372;2023-03-24T06:11:01;86841.06;;;3.66;83.20
11678;BME280;5895;41.950;24.372;2023-03-24T06:13:30;86838.44;;;3.88;82.71
11678;BME280;5895;41.950;24.372;2023-03-24T06:15:58;86844.28;;;4.10;81.91
11678;BME280;5895;41.950;24.372;2023-03-24T06:18:25;86843.78;;;4.28;81.61
11678;BME280;5895;41.950;24.372;2023-03-24T06:20:53;86836.94;;;4.48;80.21
11678;BME280;5895;41.950;24.372;2023-03-24T06:23:21;86840.75;;;4.65;79.92
11678;BME280;5895;41.950;24.372;2023-03-24T06:25:50;86846.56;;;4.81;79.16
11678;BME280;5895;41.950;24.372;2023-03-24T06:28:18;86843.63;;;4.97;78.47
11678;BME280;5895;41.950;24.372;2023-03-24T06:30:47;86851.97;;;5.12;79.22
11678;BME280;5895;41.950;24.372;2023-03-24T06:33:15;86856.34;;;5.25;76.88
11678;BME280;5895;41.950;24.372;2023-03-24T06:35:42;86854.41;;;5.40;76.93
11678;BME280;5895;41.950;24.372;2023-03-24T06:38:09;86858.75;;;5.53;76.36
11678;BME280;5895;41.950;24.372;2023-03-24T06:40:37;86861.16;;;5.68;76.44
11678;BME280;5895;41.950;24.372;2023-03-24T06:43:04;86857.19;;;5.78;75.16
11678;BME280;5895;41.950;24.372;2023-03-24T06:45:31;86867.50;;;5.92;76.11
11678;BME280;5895;41.950;24.372;2023-03-24T06:48:00;86857.19;;;6.05;74.72
11678;BME280;5895;41.950;24.372;2023-03-24T06:50:27;86856.41;;;6.18;74.22
11678;BME280;5895;41.950;24.372;2023-03-24T06:52:57;86860.75;;;6.30;73.59
11678;BME280;5895;41.950;24.372;2023-03-24T06:55:25;86858.13;;;6.44;74.02
11678;BME280;5895;41.950;24.372;2023-03-24T06:57:52;86864.84;;;6.58;73.54
11678;BME280;5895;41.950;24.372;2023-03-24T07:00:20;86860.22;;;6.73;73.29
11678;BME280;5895;41.950;24.372;2023-03-24T07:02:47;86867.69;;;6.88;73.08
11678;BME280;5895;41.950;24.372;2023-03-24T07:05:16;86870.44;;;7.00;72.85
11678;BME280;5895;41.950;24.372;2023-03-24T07:07:43;86870.41;;;7.13;72.89
11678;BME280;5895;41.950;24.372;2023-03-24T07:10:10;86871.91;;;7.27;72.55
11678;BME280;5895;41.950;24.372;2023-03-24T07:12:38;86871.25;;;7.38;72.65
11678;BME280;5895;41.950;24.372;2023-03-24T07:15:07;86872.16;;;7.51;72.95
11678;BME280;5895;41.950;24.372;2023-03-24T07:17:34;86875.66;;;7.63;73.20
11678;BME280;5895;41.950;24.372;2023-03-24T07:20:01;86882.72;;;7.81;72.64
11678;BME280;5895;41.950;24.372;2023-03-24T07:22:34;86881.38;;;7.96;72.62
11678;BME280;5895;41.950;24.372;2023-03-24T07:25:01;86880.09;;;8.12;72.38
11678;BME280;5895;41.950;24.372;2023-03-24T07:27:29;86884.50;;;8.30;70.78
11678;BME280;5895;41.950;24.372;2023-03-24T07:29:57;86881.00;;;8.50;70.09
11678;BME280;5895;41.950;24.372;2023-03-24T07:32:25;86894.97;;;8.67;69.78
11678;BME280;5895;41.950;24.372;2023-03-24T07:34:53;86885.63;;;8.84;70.03
11678;BME280;5895;41.950;24.372;2023-03-24T07:37:20;86882.84;;;9.04;69.25
11678;BME280;5895;41.950;24.372;2023-03-24T07:39:49;86881.03;;;9.23;68.99
11678;BME280;5895;41.950;24.372;2023-03-24T07:42:16;86893.16;;;9.41;68.82
11678;BME280;5895;41.950;24.372;2023-03-24T07:44:43;86878.47;;;9.53;67.86
11678;BME280;5895;41.950;24.372;2023-03-24T07:47:11;86888.44;;;9.68;67.29
11678;BME280;5895;41.950;24.372;2023-03-24T07:49:38;86888.84;;;9.83;67.66
11678;BME280;5895;41.950;24.372;2023-03-24T07:52:05;86888.22;;;9.99;67.46
11678;BME280;5895;41.950;24.372;2023-03-24T07:54:32;86889.72;;;10.19;67.30
11678;BME280;5895;41.950;24.372;2023-03-24T07:57:01;86882.34;;;10.34;66.61
11678;BME280;5895;41.950;24.372;2023-03-24T07:59:28;86888.34;;;10.46;66.68
11678;BME280;5895;41.950;24.372;2023-03-24T08:01:55;86878.31;;;10.62;66.67
11678;BME280;5895;41.950;24.372;2023-03-24T08:04:22;86879.22;;;10.79;66.44
11678;BME280;5895;41.950;24.372;2023-03-24T08:06:49;86873.34;;;10.95;66.00
11678;BME280;5895;41.950;24.372;2023-03-24T08:09:18;86872.66;;;11.11;66.17
11678;BME280;5895;41.950;24.372;2023-03-24T08:11:46;86870.69;;;11.30;64.70
11678;BME280;5895;41.950;24.372;2023-03-24T08:14:14;86874.38;;;11.46;65.07
11678;BME280;5895;41.950;24.372;2023-03-24T08:16:42;86871.28;;;11.61;63.94
11678;BME280;5895;41.950;24.372;2023-03-24T08:19:10;86877.78;;;11.75;64.60
11678;BME280;5895;41.950;24.372;2023-03-24T08:21:37;86878.81;;;11.86;64.27
11678;BME280;5895;41.950;24.372;2023-03-24T08:24:05;86870.63;;;11.94;63.13
11678;BME280;5895;41.950;24.372;2023-03-24T08:26:32;86869.31;;;12.08;64.41
11678;BME280;5895;41.950;24.372;2023-03-24T08:29:00;86870.06;;;12.21;63.48
11678;BME280;5895;41.950;24.372;2023-03-24T08:31:32;86870.31;;;12.36;59.38
11678;BME280;5895;41.950;24.372;2023-03-24T08:33:59;86865.34;;;12.51;63.24
11678;BME280;5895;41.950;24.372;2023-03-24T08:36:26;86866.63;;;12.65;62.52
11678;BME280;5895;41.950;24.372;2023-03-24T08:38:54;86860.53;;;12.77;62.23
11678;BME280;5895;41.950;24.372;2023-03-24T08:41:22;86867.53;;;12.93;61.75
11678;BME280;5895;41.950;24.372;2023-03-24T08:43:59;86859.97;;;13.08;61.42
11678;BME280;5895;41.950;24.372;2023-03-24T08:46:28;86866.66;;;13.21;61.91
11678;BME280;5895;41.950;24.372;2023-03-24T08:48:57;86868.63;;;13.31;61.01
11678;BME280;5895;41.950;24.372;2023-03-24T08:51:25;86864.16;;;13.48;61.30
11678;BME280;5895;41.950;24.372;2023-03-24T08:53:52;86861.44;;;13.60;61.11
11678;BME280;5895;41.950;24.372;2023-03-24T08:56:20;86863.91;;;13.71;60.79
11678;BME280;5895;41.950;24.372;2023-03-24T08:58:47;86867.19;;;13.84;61.14
11678;BME280;5895;41.950;24.372;2023-03-24T09:01:16;86871.53;;;14.00;61.17
11678;BME280;5895;41.950;24.372;2023-03-24T09:03:43;86868.78;;;14.12;60.49
11678;BME280;5895;41.950;24.372;2023-03-24T09:06:13;86865.56;;;14.26;59.62
11678;BME280;5895;41.950;24.372;2023-03-24T09:08:41;86871.34;;;14.34;60.14
11678;BME280;5895;41.950;24.372;2023-03-24T09:11:13;86867.44;;;14.31;55.63
11678;BME280;5895;41.950;24.372;2023-03-24T09:13:41;86865.44;;;14.43;59.81
11678;BME280;5895;41.950;24.372;2023-03-24T09:16:08;86866.16;;;14.61;59.46
11678;BME280;5895;41.950;24.372;2023-03-24T09:18:36;86857.63;;;14.75;59.76
11678;BME280;5895;41.950;24.372;2023-03-24T09:21:04;86856.69;;;14.87;59.16
11678;BME280;5895;41.950;24.372;2023-03-24T09:23:32;86865.19;;;15.04;55.53
11678;BME280;5895;41.950;24.372;2023-03-24T09:26:01;86856.88;;;15.12;58.80
11678;BME280;5895;41.950;24.372;2023-03-24T09:28:28;86859.28;;;15.24;58.64
11678;BME280;5895;41.950;24.372;2023-03-24T09:30:56;86853.63;;;15.37;59.36
11678;BME280;5895;41.950;24.372;2023-03-24T09:33:24;86859.75;;;15.58;58.42
11678;BME280;5895;41.950;24.372;2023-03-24T09:35:54;86858.75;;;15.64;55.50
11678;BME280;5895;41.950;24.372;2023-03-24T09:38:22;86851.00;;;15.84;57.95
11678;BME280;5895;41.950;24.372;2023-03-24T09:40:54;86852.63;;;15.96;54.46
11678;BME280;5895;41.950;24.372;2023-03-24T09:43:28;86842.22;;;16.11;52.10
11678;BME280;5895;41.950;24.372;2023-03-24T09:45:59;86850.31;;;16.14;56.31
11678;BME280;5895;41.950;24.372;2023-03-24T09:48:32;86855.31;;;16.26;56.41
11678;BME280;5895;41.950;24.372;2023-03-24T09:51:03;86840.19;;;16.49;55.27
11678;BME280;5895;41.950;24.372;2023-03-24T09:53:36;86845.22;;;16.71;55.69
11678;BME280;5895;41.950;24.372;2023-03-24T09:56:11;86843.94;;;16.93;50.61
11678;BME280;5895;41.950;24.372;2023-03-24T09:58:39;86838.19;;;17.02;55.40
11678;BME280;5895;41.950;24.372;2023-03-24T10:01:14;86834.50;;;17.08;50.88
11678;BME280;5895;41.950;24.372;2023-03-24T10:03:43;86842.59;;;17.16;55.84
11678;BME280;5895;41.950;24.372;2023-03-24T10:06:15;86838.13;;;17.37;52.83
11678;BME280;5895;41.950;24.372;2023-03-24T10:08:50;86840.97;;;17.56;55.24
11678;BME280;5895;41.950;24.372;2023-03-24T10:11:27;86834.41;;;17.69;49.65
11678;BME280;5895;41.950;24.372;2023-03-24T10:14:06;86837.53;;;17.71;49.65
11678;BME280;5895;41.950;24.372;2023-03-24T10:16:40;86832.25;;;17.91;51.05
11678;BME280;5895;41.950;24.372;2023-03-24T10:19:21;86823.31;;;17.97;45.19
11678;BME280;5895;41.950;24.372;2023-03-24T10:21:55;86834.78;;;18.17;51.96
11678;BME280;5895;41.950;24.372;2023-03-24T10:24:29;86839.94;;;18.37;49.84
11678;BME280;5895;41.950;24.372;2023-03-24T10:27:05;86829.81;;;18.65;50.11
11678;BME280;5895;41.950;24.372;2023-03-24T10:29:36;86826.03;;;18.86;53.29
11678;BME280;5895;41.950;24.372;2023-03-24T10:32:05;86825.38;;;18.99;52.83
11678;BME280;5895;41.950;24.372;2023-03-24T10:34:37;86831.59;;;19.14;53.33
11678;BME280;5895;41.950;24.372;2023-03-24T10:37:09;86824.13;;;19.26;52.08
11678;BME280;5895;41.950;24.372;2023-03-24T10:39:36;86823.81;;;19.33;53.68
11678;BME280;5895;41.950;24.372;2023-03-24T10:42:05;86821.34;;;19.41;52.80
11678;BME280;5895;41.950;24.372;2023-03-24T10:44:32;86814.69;;;19.54;53.14
11678;BME280;5895;41.950;24.372;2023-03-24T10:47:02;86817.16;;;19.69;52.48
11678;BME280;5895;41.950;24.372;2023-03-24T10:49:33;86820.00;;;19.78;52.73
11678;BME280;5895;41.950;24.372;2023-03-24T10:52:01;86818.53;;;19.91;52.61
11678;BME280;5895;41.950;24.372;2023-03-24T10:54:34;86817.88;;;20.04;52.83
11678;BME280;5895;41.950;24.372;2023-03-24T10:57:03;86814.84;;;20.16;51.72
11678;BME280;5895;41.950;24.372;2023-03-24T10:59:35;86817.97;;;20.18;48.20
11678;BME280;5895;41.950;24.372;2023-03-24T11:02:15;86815.56;;;20.21;44.72
11678;BME280;5895;41.950;24.372;2023-03-24T11:04:47;86811.50;;;20.29;52.04
11678;BME280;5895;41.950;24.372;2023-03-24T11:07:17;86803.00;;;20.37;51.30
11678;BME280;5895;41.950;24.372;2023-03-24T11:09:46;86805.69;;;20.32;52.16
11678;BME280;5895;41.950;24.372;2023-03-24T11:12:24;86794.97;;;20.47;51.84
11678;BME280;5895;41.950;24.372;2023-03-24T11:15:01;86789.97;;;20.65;43.67
11678;BME280;5895;41.950;24.372;2023-03-24T11:17:29;86790.44;;;20.72;51.29
11678;BME280;5895;41.950;24.372;2023-03-24T11:19:56;86794.75;;;20.81;51.29
11678;BME280;5895;41.950;24.372;2023-03-24T11:22:24;86782.72;;;20.94;51.46
11678;BME280;5895;41.950;24.372;2023-03-24T11:24:55;86782.38;;;21.14;49.59
11678;BME280;5895;41.950;24.372;2023-03-24T11:27:22;86771.19;;;21.23;50.75
11678;BME280;5895;41.950;24.372;2023-03-24T11:29:53;86772.59;;;21.15;48.86
11678;BME280;5895;41.950;24.372;2023-03-24T11:32:22;86769.72;;;21.17;50.38
11678;BME280;5895;41.950;24.372;2023-03-24T11:35:00;86765.81;;;21.28;42.41
11678;BME280;5895;41.950;24.372;2023-03-24T11:37:31;86761.69;;;21.41;49.43
11678;BME280;5895;41.950;24.372;2023-03-24T11:40:20;86759.66;;;21.51;40.62
11678;BME280;5895;41.950;24.372;2023-03-24T11:42:48;86763.16;;;21.60;50.55
11678;BME280;5895;41.950;24.372;2023-03-24T11:45:26;86758.69;;;21.75;43.31
11678;BME280;5895;41.950;24.372;2023-03-24T11:47:56;86761.34;;;21.75;48.81
11678;BME280;5895;41.950;24.372;2023-03-24T11:50:27;86752.84;;;21.78;48.37
11678;BME280;5895;41.950;24.372;2023-03-24T11:52:59;86751.84;;;21.74;45.17
11678;BME280;5895;41.950;24.372;2023-03-24T11:55:35;86753.59;;;21.64;44.66
11678;BME280;5895;41.950;24.372;2023-03-24T11:58:09;86747.56;;;21.78;44.52
11678;BME280;5895;41.950;24.372;2023-03-24T12:00:44;86747.34;;;21.88;45.19
11678;BME280;5895;41.950;24.372;2023-03-24T12:03:42;86745.78;;;21.87;40.59
11678;BME280;5895;41.950;24.372;2023-03-24T12:06:21;86746.16;;;21.94;46.46
11678;BME280;5895;41.950;24.372;2023-03-24T12:09:02;86741.56;;;22.00;45.09
11678;BME280;5895;41.950;24.372;2023-03-24T12:11:45;86737.56;;;22.02;42.88
11678;BME280;5895;41.950;24.372;2023-03-24T12:14:21;86736.97;;;22.05;47.25
11678;BME280;5895;41.950;24.372;2023-03-24T12:16:58;86732.59;;;22.14;44.20
11678;BME280;5895;41.950;24.372;2023-03-24T12:22:31;86728.19;;;22.24;44.89
11678;BME280;5895;41.950;24.372;2023-03-24T12:25:20;86723.38;;;22.26;42.67
11678;BME280;5895;41.950;24.372;2023-03-24T12:27:59;86722.28;;;22.40;44.29
11678;BME280;5895;41.950;24.372;2023-03-24T12:30:36;86722.88;;;22.51;44.94
11678;BME280;5895;41.950;24.372;2023-03-24T12:33:25;86710.00;;;22.58;41.40
11678;BME280;5895;41.950;24.372;2023-03-24T12:36:12;86708.34;;;22.62;40.94
11678;BME280;5895;41.950;24.372;2023-03-24T12:38:58;86718.66;;;22.73;40.08
11678;BME280;5895;41.950;24.372;2023-03-24T12:44:24;86709.69;;;22.74;40.35
11678;BME280;5895;41.950;24.372;2023-03-24T12:47:06;86715.41;;;22.53;41.70
11678;BME280;5895;41.950;24.372;2023-03-24T12:50:06;86710.84;;;22.45;38.42
11678;BME280;5895;41.950;24.372;2023-03-24T12:52:56;86713.78;;;22.30;37.98
11678;BME280;5895;41.950;24.372;2023-03-24T12:55:31;86715.06;;;21.91;43.29
11678;BME280;5895;41.950;24.372;2023-03-24T12:58:04;86711.34;;;21.92;42.42
11678;BME280;5895;41.950;24.372;2023-03-24T13:00:38;86717.41;;;21.92;47.55
11678;BME280;5895;41.950;24.372;2023-03-24T13:03:11;86710.97;;;21.85;46.07
11678;BME280;5895;41.950;24.372;2023-03-24T13:05:46;86705.38;;;21.45;43.91
11678;BME280;5895;41.950;24.372;2023-03-24T13:08:19;86709.09;;;21.44;42.48
11678;BME280;5895;41.950;24.372;2023-03-24T13:10:49;86709.50;;;21.19;47.84
11678;BME280;5895;41.950;24.372;2023-03-24T13:13:21;86710.25;;;21.05;46.80
11678;BME280;5895;41.950;24.372;2023-03-24T13:15:51;86708.44;;;20.87;45.96
11678;BME280;5895;41.950;24.372;2023-03-24T13:18:29;86709.03;;;20.84;42.51
11678;BME280;5895;41.950;24.372;2023-03-24T13:21:02;86706.19;;;20.62;41.55
11678;BME280;5895;41.950;24.372;2023-03-24T13:23:43;86702.19;;;20.45;41.02
11678;BME280;5895;41.950;24.372;2023-03-24T13:26:19;86701.31;;;20.31;42.22
11678;BME280;5895;41.950;24.372;2023-03-24T13:28:59;86704.50;;;19.90;42.95
11678;BME280;5895;41.950;24.372;2023-03-24T13:31:35;86708.28;;;19.84;47.95
11678;BME280;5895;41.950;24.372;2023-03-24T13:34:19;86699.31;;;19.85;48.79
11678;BME280;5895;41.950;24.372;2023-03-24T13:36:51;86698.97;;;19.92;46.02
11678;BME280;5895;41.950;24.372;2023-03-24T13:39:22;86701.41;;;20.07;48.56
11678;BME280;5895;41.950;24.372;2023-03-24T13:41:53;86700.41;;;20.03;48.60
11678;BME280;5895;41.950;24.372;2023-03-24T13:44:23;86683.69;;;20.13;48.48